createdAt,value
2022-08-12T00:02:04.133Z,19.22
2022-08-12T00:04:52.489Z,19.14
2022-08-12T00:07:38.065Z,19.09
2022-08-12T00:10:23.706Z,19.04
2022-08-12T00:13:08.785Z,18.96
2022-08-12T00:15:54.907Z,18.82
2022-08-12T00:18:40.178Z,18.74
2022-08-12T00:21:25.538Z,18.68
2022-08-12T00:24:12.672Z,18.63
2022-08-12T00:27:00.114Z,18.54
2022-08-12T00:29:47.973Z,18.47
2022-08-12T00:32:56.856Z,18.33
2022-08-12T00:35:39.464Z,18.31
2022-08-12T00:38:25.945Z,18.39
2022-08-12T00:41:11.595Z,18.38
2022-08-12T00:43:38.344Z,18.36
2022-08-12T00:46:24.004Z,18.37
2022-08-12T00:48:51.665Z,18.31
2022-08-12T00:51:19.649Z,18.24
2022-08-12T00:53:46.253Z,18.19
2022-08-12T00:56:12.870Z,18.16
2022-08-12T00:58:47.024Z,18.12
2022-08-12T01:01:14.449Z,18.10
2022-08-12T01:03:59.775Z,18.05
2022-08-12T01:06:46.315Z,17.94
2022-08-12T01:09:37.213Z,17.92
2022-08-12T01:12:06.345Z,17.83
2022-08-12T01:14:34.402Z,17.80
2022-08-12T01:17:01.018Z,17.77
2022-08-12T01:19:27.479Z,17.76
2022-08-12T01:22:23.146Z,17.73
2022-08-12T01:25:06.761Z,17.67
2022-08-12T01:27:35.107Z,17.61
2022-08-12T01:30:07.742Z,17.60
2022-08-12T01:32:38.396Z,17.55
2022-08-12T01:35:13.478Z,17.44
2022-08-12T01:37:56.509Z,17.43
2022-08-12T01:40:37.803Z,17.38
2022-08-12T01:43:10.924Z,17.32
2022-08-12T01:45:57.054Z,17.34
2022-08-12T01:48:34.848Z,17.24
2022-08-12T01:52:19.807Z,17.23
2022-08-12T01:54:28.804Z,17.14
2022-08-12T01:57:02.279Z,17.12
2022-08-12T01:59:58.426Z,17.06
2022-08-12T02:02:55.316Z,17.05
2022-08-12T02:06:01.233Z,17.01
2022-08-12T02:08:49.612Z,17.00
2022-08-12T02:11:24.629Z,16.96
2022-08-12T02:14:31.374Z,16.89
2022-08-12T02:17:24.126Z,16.85
2022-08-12T02:20:51.131Z,16.81
2022-08-12T02:23:26.787Z,16.79
2022-08-12T02:25:58.033Z,16.76
2022-08-12T02:28:24.876Z,16.74
2022-08-12T02:30:51.366Z,16.73
2022-08-12T02:33:19.706Z,16.71
2022-08-12T02:38:28.654Z,16.61
2022-08-12T02:40:57.456Z,16.63
2022-08-12T02:43:40.253Z,16.61
2022-08-12T02:46:14.475Z,16.57
2022-08-12T02:48:52.278Z,16.55
2022-08-12T02:51:34.000Z,16.47
2022-08-12T02:54:05.347Z,16.46
2022-08-12T02:56:34.188Z,16.48
2022-08-12T02:59:01.784Z,16.45
2022-08-12T03:01:35.613Z,16.40
2022-08-12T03:04:20.250Z,16.39
2022-08-12T03:07:09.492Z,16.39
2022-08-12T03:10:04.814Z,16.33
2022-08-12T03:12:42.817Z,16.29
2022-08-12T03:15:18.126Z,16.29
2022-08-12T03:18:25.879Z,16.28
2022-08-12T03:20:56.626Z,16.25
2022-08-12T03:23:29.795Z,16.20
2022-08-12T03:26:00.508Z,16.18
2022-08-12T03:28:47.677Z,16.19
2022-08-12T03:31:14.187Z,16.15
2022-08-12T03:34:00.773Z,16.13
2022-08-12T03:36:31.911Z,16.07
2022-08-12T03:39:35.549Z,16.01
2022-08-12T03:42:24.167Z,15.94
2022-08-12T03:45:26.407Z,15.92
2022-08-12T03:48:18.822Z,15.93
2022-08-12T03:51:05.939Z,15.89
2022-08-12T03:53:51.737Z,15.86
2022-08-12T03:56:37.046Z,15.88
2022-08-12T03:59:24.370Z,15.87
2022-08-12T04:01:57.661Z,15.79
2022-08-12T04:04:32.963Z,15.75
2022-08-12T04:07:09.861Z,15.75
2022-08-12T04:09:43.048Z,15.77
2022-08-12T04:12:29.946Z,15.73
2022-08-12T04:15:00.375Z,15.74
2022-08-12T04:17:27.983Z,15.77
2022-08-12T04:19:56.644Z,15.77
2022-08-12T04:22:29.407Z,15.79
2022-08-12T04:25:01.477Z,15.80
2022-08-12T04:27:31.517Z,15.83
2022-08-12T04:30:16.370Z,15.85
2022-08-12T04:32:48.180Z,15.92
2022-08-12T04:35:15.092Z,15.91
2022-08-12T04:37:58.402Z,15.88
2022-08-12T04:40:29.011Z,15.84
2022-08-12T04:42:55.959Z,15.93
2022-08-12T04:45:22.823Z,16.01
2022-08-12T04:47:49.607Z,16.05
2022-08-12T04:50:34.607Z,16.10
2022-08-12T04:53:08.245Z,16.15
2022-08-12T04:55:38.812Z,16.28
2022-08-12T04:58:06.731Z,16.36
2022-08-12T05:00:33.882Z,16.46
2022-08-12T05:03:00.437Z,16.56
2022-08-12T05:05:30.347Z,16.69
2022-08-12T05:07:59.080Z,16.80
2022-08-12T05:10:34.000Z,16.94
2022-08-12T05:13:08.117Z,17.08
2022-08-12T05:16:03.924Z,17.25
2022-08-12T05:18:25.294Z,17.40
2022-08-12T05:20:55.713Z,17.55
2022-08-12T05:23:22.523Z,17.78
2022-08-12T05:25:51.336Z,17.98
2022-08-12T05:28:18.222Z,18.14
2022-08-12T05:30:45.880Z,18.29
2022-08-12T05:33:13.582Z,18.40
2022-08-12T05:35:43.528Z,18.57
2022-08-12T05:38:41.034Z,18.79
2022-08-12T05:41:19.016Z,19.12
2022-08-12T05:44:00.684Z,19.55
2022-08-12T05:46:29.030Z,19.75
2022-08-12T05:48:56.358Z,20.08
2022-08-12T05:51:39.571Z,20.65
2022-08-12T05:54:08.819Z,21.14
2022-08-12T05:56:36.068Z,21.53
2022-08-12T05:59:07.522Z,21.73
2022-08-12T06:02:12.302Z,22.28
2022-08-12T06:04:21.450Z,22.74
2022-08-12T06:06:51.389Z,23.18
2022-08-12T06:09:17.808Z,23.46
2022-08-12T06:12:05.926Z,23.78
2022-08-12T06:14:36.713Z,24.15
2022-08-12T06:17:04.422Z,24.39
2022-08-12T06:20:26.593Z,24.53
2022-08-12T06:22:18.037Z,24.73
2022-08-12T06:24:44.505Z,24.88
2022-08-12T06:27:11.549Z,25.21
2022-08-12T06:30:08.848Z,25.48
2022-08-12T06:32:27.464Z,25.75
2022-08-12T06:35:23.400Z,26.02
2022-08-12T06:37:45.805Z,26.26
2022-08-12T06:40:42.205Z,26.55
2022-08-12T06:43:08.738Z,26.77
2022-08-12T06:45:45.231Z,26.86
2022-08-12T06:48:12.333Z,27.21
2022-08-12T06:50:40.204Z,27.10
2022-08-12T06:53:06.850Z,27.36
2022-08-12T06:55:33.299Z,27.52
2022-08-12T06:58:07.396Z,27.74
2022-08-12T07:00:36.966Z,27.98
2022-08-12T07:03:22.702Z,28.17
2022-08-12T07:05:50.854Z,27.94
2022-08-12T07:08:18.171Z,28.16
2022-08-12T07:10:50.789Z,28.49
2022-08-12T07:13:17.252Z,28.68
2022-08-12T07:15:43.868Z,28.96
2022-08-12T07:18:11.982Z,29.03
2022-08-12T07:20:51.831Z,29.09
2022-08-12T07:23:19.459Z,29.17
2022-08-12T07:25:45.958Z,29.06
2022-08-12T07:28:24.498Z,29.33
2022-08-12T07:30:53.366Z,29.11
2022-08-12T07:33:23.020Z,29.22
2022-08-12T07:35:53.876Z,29.37
2022-08-12T07:38:29.113Z,29.41
2022-08-12T07:41:15.818Z,29.07
2022-08-12T07:43:51.459Z,29.51
2022-08-12T07:46:22.548Z,29.61
2022-08-12T07:48:51.896Z,29.62
2022-08-12T07:51:25.274Z,29.52
2022-08-12T07:54:00.537Z,29.74
2022-08-12T07:56:31.130Z,30.02
2022-08-12T07:58:59.198Z,29.99
2022-08-12T08:01:26.383Z,29.99
2022-08-12T08:04:17.992Z,29.98
2022-08-12T08:06:45.934Z,30.09
2022-08-12T08:09:14.866Z,30.13
2022-08-12T08:12:00.382Z,29.87
2022-08-12T08:14:31.733Z,30.14
2022-08-12T08:16:59.708Z,30.04
2022-08-12T08:19:29.019Z,30.07
2022-08-12T08:21:57.189Z,30.17
2022-08-12T08:24:26.904Z,30.36
2022-08-12T08:26:58.878Z,30.36
2022-08-12T08:29:25.721Z,30.55
2022-08-12T08:31:59.927Z,30.44
2022-08-12T08:34:49.136Z,30.33
2022-08-12T08:37:17.281Z,29.98
2022-08-12T08:39:43.976Z,29.91
2022-08-12T08:42:36.786Z,29.74
2022-08-12T08:45:12.831Z,29.82
2022-08-12T08:47:49.674Z,29.60
2022-08-12T08:50:16.245Z,29.44
2022-08-12T08:52:47.330Z,29.56
2022-08-12T08:55:20.842Z,29.65
2022-08-12T08:57:53.611Z,29.93
2022-08-12T09:00:21.704Z,30.14
2022-08-12T09:02:59.502Z,30.00
2022-08-12T09:05:27.696Z,30.36
2022-08-12T09:08:09.077Z,30.44
2022-08-12T09:10:45.188Z,30.50
2022-08-12T09:14:12.960Z,30.49
2022-08-12T09:16:21.285Z,30.32
2022-08-12T09:18:52.683Z,30.55
2022-08-12T09:21:23.240Z,30.53
2022-08-12T09:23:57.752Z,30.32
2022-08-12T09:26:29.165Z,30.45
2022-08-12T09:28:56.850Z,30.31
2022-08-12T09:32:05.838Z,30.44
2022-08-12T09:34:28.118Z,30.48
2022-08-12T09:37:02.562Z,30.47
2022-08-12T09:40:03.590Z,30.30
2022-08-12T09:43:10.955Z,30.54
2022-08-12T09:46:06.941Z,30.51
2022-08-12T09:48:23.202Z,30.68
2022-08-12T09:50:51.870Z,30.63
2022-08-12T09:53:36.335Z,30.84
2022-08-12T09:57:00.931Z,30.60
2022-08-12T09:59:00.369Z,30.71
2022-08-12T10:01:35.354Z,30.80
2022-08-12T10:04:19.289Z,30.26
2022-08-12T10:06:53.790Z,30.34
2022-08-12T10:09:23.117Z,30.48
2022-08-12T10:12:14.206Z,30.41
2022-08-12T10:14:49.802Z,30.65
2022-08-12T10:17:18.571Z,30.90
2022-08-12T10:19:51.627Z,30.38
2022-08-12T10:22:37.228Z,30.44
2022-08-12T10:26:38.185Z,30.55
2022-08-12T10:28:30.467Z,30.81
2022-08-12T10:30:59.315Z,30.97
2022-08-12T10:33:31.454Z,30.93
2022-08-12T10:35:59.747Z,30.79
2022-08-12T10:38:38.140Z,30.90
2022-08-12T10:41:56.550Z,31.31
2022-08-12T10:44:16.995Z,31.54
2022-08-12T10:46:49.063Z,31.43
2022-08-12T10:50:03.659Z,31.18
2022-08-12T10:52:34.725Z,31.25
2022-08-12T10:54:53.393Z,30.65
2022-08-12T10:58:13.017Z,30.09
2022-08-12T11:00:30.583Z,30.18
2022-08-12T11:04:27.682Z,30.42
2022-08-12T11:07:10.203Z,30.57
2022-08-12T11:08:42.319Z,30.49
2022-08-12T11:11:13.602Z,30.36
2022-08-12T11:13:46.586Z,30.13
2022-08-12T11:16:22.522Z,29.83
2022-08-12T11:18:55.423Z,29.98
2022-08-12T11:21:56.397Z,29.93
2022-08-12T11:24:30.712Z,29.99
2022-08-12T11:27:07.797Z,29.77
2022-08-12T11:30:05.763Z,29.42
2022-08-12T11:32:29.386Z,29.83
2022-08-12T11:35:05.936Z,30.19
2022-08-12T11:37:59.392Z,30.21
2022-08-12T11:40:50.504Z,29.75
2022-08-12T11:43:50.294Z,29.90
2022-08-12T11:46:26.639Z,29.96
2022-08-12T11:48:53.070Z,29.74
2022-08-12T11:51:20.780Z,29.69
2022-08-12T11:53:58.341Z,29.57
2022-08-12T11:56:38.567Z,29.45
2022-08-12T12:02:04.741Z,29.36
2022-08-12T12:04:32.141Z,29.88
2022-08-12T12:07:07.447Z,30.29
2022-08-12T12:09:52.373Z,30.37
2022-08-12T12:12:22.306Z,30.39
2022-08-12T12:14:54.223Z,30.69
2022-08-12T12:17:21.655Z,30.70
2022-08-12T12:19:48.619Z,30.93
2022-08-12T12:22:15.693Z,31.12
2022-08-12T12:24:51.036Z,31.04
2022-08-12T12:27:39.384Z,31.16
2022-08-12T12:30:17.688Z,31.10
2022-08-12T12:32:53.738Z,31.16
2022-08-12T12:36:19.968Z,30.98
2022-08-12T12:38:12.867Z,31.04
2022-08-12T12:40:45.704Z,30.78
2022-08-12T12:43:16.998Z,30.56
2022-08-12T12:46:03.452Z,30.26
2022-08-12T12:48:29.886Z,30.78
2022-08-12T12:51:49.370Z,31.18
2022-08-12T12:54:07.187Z,30.73
2022-08-12T12:56:42.299Z,30.87
2022-08-12T12:59:33.703Z,30.65
2022-08-12T13:01:56.140Z,30.20
2022-08-12T13:04:24.644Z,30.38
2022-08-12T13:07:01.249Z,30.35
2022-08-12T13:09:28.393Z,30.33
2022-08-12T13:12:03.031Z,30.67
2022-08-12T13:14:31.632Z,30.84
2022-08-12T13:17:02.936Z,30.82
2022-08-12T13:19:43.451Z,30.87
2022-08-12T13:22:18.552Z,30.55
2022-08-12T13:24:54.943Z,30.78
2022-08-12T13:27:35.516Z,30.68
2022-08-12T13:30:06.906Z,30.37
2022-08-12T13:32:38.063Z,30.39
2022-08-12T13:35:19.237Z,30.40
2022-08-12T13:37:55.121Z,30.48
2022-08-12T13:40:40.742Z,30.61
2022-08-12T13:43:07.510Z,30.93
2022-08-12T13:45:35.414Z,31.21
2022-08-12T13:48:07.174Z,31.03
2022-08-12T13:50:38.672Z,30.96
2022-08-12T13:53:23.986Z,31.04
2022-08-12T13:55:59.522Z,30.77
2022-08-12T13:58:29.102Z,30.88
2022-08-12T14:00:58.003Z,31.19
2022-08-12T14:03:28.025Z,31.61
2022-08-12T14:05:59.149Z,31.53
2022-08-12T14:08:25.898Z,31.42
2022-08-12T14:11:02.047Z,31.08
2022-08-12T14:14:03.854Z,30.90
2022-08-12T14:16:37.821Z,30.69
2022-08-12T14:19:05.135Z,30.43
2022-08-12T14:21:59.288Z,30.21
2022-08-12T14:24:30.818Z,30.33
2022-08-12T14:26:57.518Z,30.38
2022-08-12T14:29:55.699Z,30.30
2022-08-12T14:32:39.160Z,30.00
2022-08-12T14:35:10.938Z,30.05
2022-08-12T14:37:57.323Z,29.82
2022-08-12T14:40:29.495Z,29.59
2022-08-12T14:42:58.324Z,29.63
2022-08-12T14:45:45.582Z,29.65
2022-08-12T14:48:13.135Z,29.64
2022-08-12T14:51:03.182Z,29.60
2022-08-12T14:59:23.804Z,29.63
2022-08-12T15:02:17.111Z,29.82
2022-08-12T15:05:03.470Z,29.78
2022-08-12T15:07:33.167Z,29.78
2022-08-12T15:10:10.767Z,29.70
2022-08-12T15:12:40.527Z,29.68
2022-08-12T15:15:08.761Z,29.60
2022-08-12T15:17:38.543Z,29.56
2022-08-12T15:20:31.512Z,29.73
2022-08-12T15:22:53.866Z,29.80
2022-08-12T15:25:20.745Z,29.92
2022-08-12T15:28:04.457Z,30.00
2022-08-12T15:30:34.637Z,30.08
2022-08-12T15:33:12.239Z,30.22
2022-08-12T15:35:50.250Z,30.34
2022-08-12T15:38:20.719Z,30.30
2022-08-12T15:40:49.929Z,30.33
2022-08-12T15:43:35.479Z,30.25
2022-08-12T15:46:06.256Z,30.03
2022-08-12T15:48:32.914Z,30.32
2022-08-12T15:51:01.931Z,30.46
2022-08-12T15:53:53.163Z,30.34
2022-08-12T15:56:29.355Z,30.25
2022-08-12T15:58:58.861Z,30.25
2022-08-12T16:01:35.138Z,30.38
2022-08-12T16:04:02.990Z,30.15
2022-08-12T16:06:50.989Z,30.21
2022-08-12T16:09:21.507Z,30.20
2022-08-12T16:11:48.753Z,30.14
2022-08-12T16:14:16.219Z,29.98
2022-08-12T16:16:42.924Z,30.08
2022-08-12T16:20:01.862Z,30.11
2022-08-12T16:21:58.226Z,30.16
2022-08-12T16:24:25.413Z,30.18
2022-08-12T16:27:03.778Z,30.12
2022-08-12T16:29:53.813Z,30.23
2022-08-12T16:32:31.741Z,30.01
2022-08-12T16:34:59.819Z,29.91
2022-08-12T16:38:04.746Z,29.93
2022-08-12T16:40:14.328Z,29.78
2022-08-12T16:42:53.807Z,29.78
2022-08-12T16:46:04.351Z,29.66
2022-08-12T16:48:34.605Z,29.58
2022-08-12T16:51:09.487Z,29.51
2022-08-12T16:53:44.654Z,29.59
2022-08-12T16:56:15.162Z,29.55
2022-08-12T16:58:42.271Z,29.47
2022-08-12T17:01:13.978Z,29.41
2022-08-12T17:03:58.842Z,29.42
2022-08-12T17:06:28.127Z,29.56
2022-08-12T17:09:02.861Z,29.42
2022-08-12T17:11:30.972Z,29.30
2022-08-12T17:13:59.097Z,29.34
2022-08-12T17:16:30.143Z,29.23
2022-08-12T17:18:59.715Z,29.22
2022-08-12T17:21:41.373Z,29.22
2022-08-12T17:24:21.714Z,29.12
2022-08-12T17:26:50.022Z,29.07
2022-08-12T17:29:24.014Z,29.05
2022-08-12T17:32:07.296Z,29.06
2022-08-12T17:34:54.101Z,29.10
2022-08-12T17:37:21.260Z,29.06
2022-08-12T17:40:07.431Z,29.11
2022-08-12T17:42:35.546Z,29.05
2022-08-12T17:45:18.207Z,29.03
2022-08-12T17:48:01.748Z,29.07
2022-08-12T17:50:36.870Z,28.94
2022-08-12T17:53:08.115Z,28.82
2022-08-12T17:55:44.004Z,28.77
2022-08-12T17:58:15.007Z,28.79
2022-08-12T18:00:46.062Z,28.74
2022-08-12T18:04:06.936Z,28.64
2022-08-12T18:06:14.255Z,28.69
2022-08-12T18:08:54.567Z,28.60
2022-08-12T18:12:05.569Z,28.57
2022-08-12T18:14:28.954Z,28.46
2022-08-12T18:17:00.522Z,28.55
2022-08-12T18:20:03.530Z,28.58
2022-08-12T18:22:17.604Z,28.62
2022-08-12T18:25:01.471Z,28.61
2022-08-12T18:27:43.488Z,28.50
2022-08-12T18:30:13.196Z,28.35
2022-08-12T18:32:59.101Z,28.33
2022-08-12T18:35:47.791Z,28.25
2022-08-12T18:38:17.083Z,28.10
2022-08-12T18:41:04.140Z,27.91
2022-08-12T18:43:57.213Z,27.94
2022-08-12T18:46:29.237Z,27.70
2022-08-12T18:48:57.587Z,27.56
2022-08-12T18:51:51.892Z,27.56
2022-08-12T18:54:23.284Z,27.40
2022-08-12T18:56:49.968Z,27.18
2022-08-12T19:00:01.145Z,27.00
2022-08-12T19:02:21.840Z,26.89
2022-08-12T19:04:49.568Z,26.61
2022-08-12T19:07:24.870Z,26.34
2022-08-12T19:09:59.976Z,26.28
2022-08-12T19:12:57.244Z,26.39
2022-08-12T19:15:25.619Z,26.29
2022-08-12T19:18:00.502Z,26.05
2022-08-12T19:20:32.847Z,25.84
2022-08-12T19:23:07.192Z,25.85
2022-08-12T19:26:00.521Z,25.81
2022-08-12T19:28:26.078Z,25.61
2022-08-12T19:31:17.546Z,25.55
2022-08-12T19:34:00.912Z,25.52
2022-08-12T19:36:32.483Z,25.30
2022-08-12T19:39:01.774Z,25.30
2022-08-12T19:41:42.454Z,25.25
2022-08-12T19:44:16.766Z,25.16
2022-08-12T19:46:52.907Z,25.09
2022-08-12T19:49:20.476Z,24.97
2022-08-12T19:51:51.543Z,24.93
2022-08-12T19:54:22.994Z,24.86
2022-08-12T19:56:57.455Z,24.75
2022-08-12T19:59:43.258Z,24.67
2022-08-12T20:02:22.738Z,24.50
2022-08-12T20:06:06.055Z,24.41
2022-08-12T20:07:57.164Z,24.30
2022-08-12T20:10:36.408Z,24.31
2022-08-12T20:13:18.337Z,24.21
2022-08-12T20:15:51.092Z,24.09
2022-08-12T20:18:53.275Z,24.04
2022-08-12T20:21:15.928Z,23.90
2022-08-12T20:23:59.854Z,23.95
2022-08-12T20:26:27.666Z,23.86
2022-08-12T20:28:54.821Z,23.82
2022-08-12T20:31:21.285Z,23.78
2022-08-12T20:33:50.657Z,23.75
2022-08-12T20:36:42.837Z,23.64
2022-08-12T20:39:34.059Z,23.49
2022-08-12T20:42:01.781Z,23.44
2022-08-12T20:44:30.414Z,23.31
2022-08-12T20:47:06.309Z,23.30
2022-08-12T20:49:44.278Z,23.17
2022-08-12T20:52:15.230Z,23.09
2022-08-12T20:54:50.123Z,23.04
2022-08-12T20:57:20.872Z,23.08
2022-08-12T20:59:50.157Z,23.07
2022-08-12T21:02:24.490Z,23.00
2022-08-12T21:05:16.289Z,22.92
2022-08-12T21:07:47.690Z,22.83
2022-08-12T21:10:18.928Z,22.83
2022-08-12T21:12:47.939Z,22.75
2022-08-12T21:15:18.021Z,22.68
2022-08-12T21:18:11.069Z,22.67
2022-08-12T21:20:55.736Z,22.59
2022-08-12T21:23:23.014Z,22.53
2022-08-12T21:25:51.168Z,22.50
2022-08-12T21:28:20.429Z,22.44
2022-08-12T21:31:11.780Z,22.33
2022-08-12T21:33:58.624Z,22.20
2022-08-12T21:36:22.545Z,22.10
2022-08-12T21:38:51.169Z,21.87
2022-08-12T21:41:20.230Z,21.88
2022-08-12T21:43:52.427Z,21.91
2022-08-12T21:46:35.337Z,21.86
2022-08-12T21:49:04.763Z,21.88
2022-08-12T21:51:49.051Z,21.85
2022-08-12T21:54:22.592Z,21.77
2022-08-12T21:56:50.280Z,21.64
2022-08-12T21:59:17.887Z,21.64
2022-08-12T22:01:48.949Z,21.74
2022-08-12T22:04:35.376Z,21.50
2022-08-12T22:07:02.223Z,21.53
2022-08-12T22:09:29.854Z,21.45
2022-08-12T22:12:39.095Z,21.45
2022-08-12T22:15:09.278Z,21.40
2022-08-12T22:17:49.832Z,21.38
2022-08-12T22:20:21.798Z,21.39
2022-08-12T22:22:57.043Z,21.37
2022-08-12T22:25:24.239Z,21.35
2022-08-12T22:28:11.960Z,21.44
2022-08-12T22:30:56.952Z,21.35
2022-08-12T22:33:23.375Z,21.27
2022-08-12T22:35:58.764Z,21.30
2022-08-12T22:38:29.186Z,21.33
2022-08-12T22:41:30.020Z,21.21
2022-08-12T22:44:15.565Z,21.23
2022-08-12T22:47:01.104Z,21.26
2022-08-12T22:49:36.852Z,21.17
2022-08-12T22:52:18.489Z,21.08
2022-08-12T22:55:02.990Z,21.10
2022-08-12T22:57:53.992Z,21.10
2022-08-12T23:00:23.966Z,21.02
2022-08-12T23:02:59.382Z,21.00
2022-08-12T23:05:57.503Z,21.10
2022-08-12T23:08:18.122Z,21.07
2022-08-12T23:10:48.278Z,20.97
2022-08-12T23:13:43.999Z,20.92
2022-08-12T23:16:28.501Z,20.95
2022-08-12T23:19:10.939Z,20.88
2022-08-12T23:22:06.760Z,20.82
2022-08-12T23:24:38.656Z,20.91
2022-08-12T23:27:23.868Z,20.81
2022-08-12T23:30:18.675Z,20.79
2022-08-12T23:32:46.503Z,20.79
2022-08-12T23:35:22.619Z,20.75
2022-08-12T23:37:53.932Z,20.68
2022-08-12T23:40:22.112Z,20.73
2022-08-12T23:42:49.123Z,20.68
2022-08-12T23:45:20.569Z,20.61
2022-08-12T23:47:59.771Z,20.64
2022-08-12T23:50:33.960Z,20.67
2022-08-12T23:53:05.768Z,20.63
2022-08-12T23:55:35.798Z,20.59
2022-08-12T23:58:21.445Z,20.61
